sensor_id;sensor_type;location;lat;lon;timestamp;temperature;humidity
44747;DHT22;30472;49.490;10.972;2023-08-06T00:00:13;15.10;99.90
44747;DHT22;30472;49.490;10.972;2023-08-06T00:02:38;15.00;99.90
44747;DHT22;30472;49.490;10.972;2023-08-06T00:05:04;14.90;99.90
44747;DHT22;30472;49.490;10.972;2023-08-06T00:07:30;14.90;99.90
44747;DHT22;30472;49.490;10.972;2023-08-06T00:09:55;14.90;99.90
44747;DHT22;30472;49.490;10.972;2023-08-06T00:12:21;14.80;99.90
44747;DHT22;30472;49.490;10.972;2023-08-06T00:14:53;14.80;99.90
44747;DHT22;30472;49.490;10.972;2023-08-06T00:17:19;14.80;99.90
44747;DHT22;30472;49.490;10.972;2023-08-06T00:19:44;14.70;99.90
44747;DHT22;30472;49.490;10.972;2023-08-06T00:22:10;14.70;99.90
44747;DHT22;30472;49.490;10.972;2023-08-06T00:24:36;14.60;99.90
44747;DHT22;30472;49.490;10.972;2023-08-06T00:27:02;14.70;99.90
44747;DHT22;30472;49.490;10.972;2023-08-06T00:29:27;14.70;99.90
44747;DHT22;30472;49.490;10.972;2023-08-06T00:31:53;14.70;99.90
44747;DHT22;30472;49.490;10.972;2023-08-06T00:34:19;14.70;99.90
44747;DHT22;30472;49.490;10.972;2023-08-06T00:36:44;14.70;99.90
44747;DHT22;30472;49.490;10.972;2023-08-06T00:39:10;14.60;99.90
44747;DHT22;30472;49.490;10.972;2023-08-06T00:41:36;14.60;99.90
44747;DHT22;30472;49.490;10.972;2023-08-06T00:44:02;14.70;99.90
44747;DHT22;30472;49.490;10.972;2023-08-06T00:46:27;14.70;99.90
44747;DHT22;30472;49.490;10.972;2023-08-06T00:48:54;14.70;99.90
44747;DHT22;30472;49.490;10.972;2023-08-06T00:51:20;14.60;99.90
44747;DHT22;30472;49.490;10.972;2023-08-06T00:53:46;14.60;99.90
44747;DHT22;30472;49.490;10.972;2023-08-06T00:56:12;14.60;99.90
44747;DHT22;30472;49.490;10.972;2023-08-06T00:58:38;14.50;99.90
44747;DHT22;30472;49.490;10.972;2023-08-06T01:01:04;14.50;99.90
44747;DHT22;30472;49.490;10.972;2023-08-06T01:03:30;14.50;99.90
44747;DHT22;30472;49.490;10.972;2023-08-06T01:05:56;14.50;99.90
44747;DHT22;30472;49.490;10.972;2023-08-06T01:08:57;14.40;99.90
44747;DHT22;30472;49.490;10.972;2023-08-06T01:11:32;14.40;99.90
44747;DHT22;30472;49.490;10.972;2023-08-06T01:14:04;14.40;99.90
44747;DHT22;30472;49.490;10.972;2023-08-06T01:16:33;14.40;99.90
44747;DHT22;30472;49.490;10.972;2023-08-06T01:18:59;14.40;99.90
44747;DHT22;30472;49.490;10.972;2023-08-06T01:21:24;14.50;99.90
44747;DHT22;30472;49.490;10.972;2023-08-06T01:23:50;14.50;99.90
44747;DHT22;30472;49.490;10.972;2023-08-06T01:26:33;14.50;99.90
44747;DHT22;30472;49.490;10.972;2023-08-06T01:31:39;14.40;99.90
44747;DHT22;30472;49.490;10.972;2023-08-06T01:34:10;14.40;99.90
44747;DHT22;30472;49.490;10.972;2023-08-06T01:36:36;14.40;99.90
44747;DHT22;30472;49.490;10.972;2023-08-06T01:39:04;14.40;99.90
44747;DHT22;30472;49.490;10.972;2023-08-06T01:41:30;14.40;99.90
44747;DHT22;30472;49.490;10.972;2023-08-06T01:43:56;14.40;99.90
44747;DHT22;30472;49.490;10.972;2023-08-06T01:46:21;14.40;99.90
44747;DHT22;30472;49.490;10.972;2023-08-06T01:48:47;14.50;99.90
44747;DHT22;30472;49.490;10.972;2023-08-06T01:51:12;14.40;99.90
44747;DHT22;30472;49.490;10.972;2023-08-06T01:53:38;14.40;99.90
44747;DHT22;30472;49.490;10.972;2023-08-06T01:56:03;14.40;99.90
44747;DHT22;30472;49.490;10.972;2023-08-06T01:58:29;14.40;99.90
44747;DHT22;30472;49.490;10.972;2023-08-06T02:00:54;14.40;99.90
44747;DHT22;30472;49.490;10.972;2023-08-06T02:03:20;14.40;99.90
44747;DHT22;30472;49.490;10.972;2023-08-06T02:05:45;14.30;99.90
44747;DHT22;30472;49.490;10.972;2023-08-06T02:08:11;14.40;99.90
44747;DHT22;30472;49.490;10.972;2023-08-06T02:10:37;14.40;99.90
44747;DHT22;30472;49.490;10.972;2023-08-06T02:13:03;14.30;99.90
44747;DHT22;30472;49.490;10.972;2023-08-06T02:15:28;14.30;99.90
44747;DHT22;30472;49.490;10.972;2023-08-06T02:17:54;14.30;99.90
44747;DHT22;30472;49.490;10.972;2023-08-06T02:20:19;14.20;99.90
44747;DHT22;30472;49.490;10.972;2023-08-06T02:22:45;14.10;99.90
44747;DHT22;30472;49.490;10.972;2023-08-06T02:25:10;14.20;99.90
44747;DHT22;30472;49.490;10.972;2023-08-06T02:27:37;14.10;99.90
44747;DHT22;30472;49.490;10.972;2023-08-06T02:30:03;14.00;99.90
44747;DHT22;30472;49.490;10.972;2023-08-06T02:32:30;13.90;99.90
44747;DHT22;30472;49.490;10.972;2023-08-06T02:34:57;14.00;99.90
44747;DHT22;30472;49.490;10.972;2023-08-06T02:37:22;13.90;99.90
44747;DHT22;30472;49.490;10.972;2023-08-06T02:39:48;13.90;99.90
44747;DHT22;30472;49.490;10.972;2023-08-06T02:42:13;13.90;99.90
44747;DHT22;30472;49.490;10.972;2023-08-06T02:44:39;13.90;99.90
44747;DHT22;30472;49.490;10.972;2023-08-06T02:47:05;13.90;99.90
44747;DHT22;30472;49.490;10.972;2023-08-06T02:49:30;14.00;99.90
44747;DHT22;30472;49.490;10.972;2023-08-06T02:51:56;14.00;99.90
44747;DHT22;30472;49.490;10.972;2023-08-06T02:54:21;14.00;99.90
44747;DHT22;30472;49.490;10.972;2023-08-06T02:56:47;13.90;99.90
44747;DHT22;30472;49.490;10.972;2023-08-06T02:59:13;14.00;99.90
44747;DHT22;30472;49.490;10.972;2023-08-06T03:01:39;13.90;99.90
44747;DHT22;30472;49.490;10.972;2023-08-06T03:04:04;14.00;99.90
44747;DHT22;30472;49.490;10.972;2023-08-06T03:06:30;14.00;99.90
44747;DHT22;30472;49.490;10.972;2023-08-06T03:08:56;14.00;99.90
44747;DHT22;30472;49.490;10.972;2023-08-06T03:11:22;14.00;99.90
44747;DHT22;30472;49.490;10.972;2023-08-06T03:13:48;14.00;99.90
44747;DHT22;30472;49.490;10.972;2023-08-06T03:16:13;14.00;99.90
44747;DHT22;30472;49.490;10.972;2023-08-06T03:18:39;14.00;99.90
44747;DHT22;30472;49.490;10.972;2023-08-06T03:21:05;14.00;99.90
44747;DHT22;30472;49.490;10.972;2023-08-06T03:23:31;14.00;99.90
44747;DHT22;30472;49.490;10.972;2023-08-06T03:26:00;13.90;99.90
44747;DHT22;30472;49.490;10.972;2023-08-06T03:28:26;13.90;99.90
44747;DHT22;30472;49.490;10.972;2023-08-06T03:31:01;13.90;99.90
44747;DHT22;30472;49.490;10.972;2023-08-06T03:33:27;13.90;99.90
44747;DHT22;30472;49.490;10.972;2023-08-06T03:35:53;13.90;99.90
44747;DHT22;30472;49.490;10.972;2023-08-06T03:38:19;13.80;99.90
44747;DHT22;30472;49.490;10.972;2023-08-06T03:40:45;13.80;99.90
44747;DHT22;30472;49.490;10.972;2023-08-06T03:43:11;13.70;99.90
44747;DHT22;30472;49.490;10.972;2023-08-06T03:45:36;13.70;99.90
44747;DHT22;30472;49.490;10.972;2023-08-06T03:48:02;13.70;99.90
44747;DHT22;30472;49.490;10.972;2023-08-06T03:50:28;13.60;99.90
44747;DHT22;30472;49.490;10.972;2023-08-06T03:52:53;13.50;99.90
44747;DHT22;30472;49.490;10.972;2023-08-06T03:55:19;13.50;99.90
44747;DHT22;30472;49.490;10.972;2023-08-06T03:57:44;13.50;99.90
44747;DHT22;30472;49.490;10.972;2023-08-06T04:00:10;13.40;99.90
44747;DHT22;30472;49.490;10.972;2023-08-06T04:02:36;13.30;99.90
44747;DHT22;30472;49.490;10.972;2023-08-06T04:05:01;13.40;99.90
44747;DHT22;30472;49.490;10.972;2023-08-06T04:07:28;13.30;99.90
44747;DHT22;30472;49.490;10.972;2023-08-06T04:09:58;13.30;99.90
44747;DHT22;30472;49.490;10.972;2023-08-06T04:12:25;13.20;99.90
44747;DHT22;30472;49.490;10.972;2023-08-06T04:14:51;13.20;99.90
44747;DHT22;30472;49.490;10.972;2023-08-06T04:17:23;13.10;99.90
44747;DHT22;30472;49.490;10.972;2023-08-06T04:19:53;13.10;99.90
44747;DHT22;30472;49.490;10.972;2023-08-06T04:22:20;13.10;99.90
44747;DHT22;30472;49.490;10.972;2023-08-06T04:24:46;13.10;99.90
44747;DHT22;30472;49.490;10.972;2023-08-06T04:27:13;13.00;99.90
44747;DHT22;30472;49.490;10.972;2023-08-06T04:29:39;13.00;99.90
44747;DHT22;30472;49.490;10.972;2023-08-06T04:32:07;13.00;99.90
44747;DHT22;30472;49.490;10.972;2023-08-06T04:34:32;13.10;99.90
44747;DHT22;30472;49.490;10.972;2023-08-06T04:36:59;13.10;99.90
44747;DHT22;30472;49.490;10.972;2023-08-06T04:39:25;13.10;99.90
44747;DHT22;30472;49.490;10.972;2023-08-06T04:41:50;13.10;99.90
44747;DHT22;30472;49.490;10.972;2023-08-06T04:44:16;13.10;99.90
44747;DHT22;30472;49.490;10.972;2023-08-06T04:46:41;13.00;99.90
44747;DHT22;30472;49.490;10.972;2023-08-06T04:49:07;13.00;99.90
44747;DHT22;30472;49.490;10.972;2023-08-06T04:51:33;13.00;99.90
44747;DHT22;30472;49.490;10.972;2023-08-06T04:53:58;13.00;99.90
44747;DHT22;30472;49.490;10.972;2023-08-06T04:56:24;13.00;99.90
44747;DHT22;30472;49.490;10.972;2023-08-06T04:58:50;13.00;99.90
44747;DHT22;30472;49.490;10.972;2023-08-06T05:01:15;13.00;99.90
44747;DHT22;30472;49.490;10.972;2023-08-06T05:03:41;13.00;99.90
44747;DHT22;30472;49.490;10.972;2023-08-06T05:06:07;13.10;99.90
44747;DHT22;30472;49.490;10.972;2023-08-06T05:08:32;13.10;99.90
44747;DHT22;30472;49.490;10.972;2023-08-06T05:10:58;13.10;99.90
44747;DHT22;30472;49.490;10.972;2023-08-06T05:13:23;13.20;99.90
44747;DHT22;30472;49.490;10.972;2023-08-06T05:15:50;13.30;99.90
44747;DHT22;30472;49.490;10.972;2023-08-06T05:18:16;13.30;99.90
44747;DHT22;30472;49.490;10.972;2023-08-06T05:20:42;13.40;99.90
44747;DHT22;30472;49.490;10.972;2023-08-06T05:23:08;13.50;99.90
44747;DHT22;30472;49.490;10.972;2023-08-06T05:25:37;13.70;99.90
44747;DHT22;30472;49.490;10.972;2023-08-06T05:28:04;13.80;99.90
44747;DHT22;30472;49.490;10.972;2023-08-06T05:30:29;13.90;99.90
44747;DHT22;30472;49.490;10.972;2023-08-06T05:32:56;14.10;99.90
44747;DHT22;30472;49.490;10.972;2023-08-06T05:35:22;14.20;99.90
44747;DHT22;30472;49.490;10.972;2023-08-06T05:37:49;14.40;99.90
44747;DHT22;30472;49.490;10.972;2023-08-06T05:40:15;14.50;99.90
44747;DHT22;30472;49.490;10.972;2023-08-06T05:42:40;14.40;99.90
44747;DHT22;30472;49.490;10.972;2023-08-06T05:45:07;14.40;99.90
44747;DHT22;30472;49.490;10.972;2023-08-06T05:47:33;14.40;99.90
44747;DHT22;30472;49.490;10.972;2023-08-06T05:49:58;14.50;99.90
44747;DHT22;30472;49.490;10.972;2023-08-06T05:52:24;14.50;99.90
44747;DHT22;30472;49.490;10.972;2023-08-06T05:54:50;14.50;99.90
44747;DHT22;30472;49.490;10.972;2023-08-06T05:57:16;14.50;99.90
44747;DHT22;30472;49.490;10.972;2023-08-06T05:59:42;14.60;99.90
44747;DHT22;30472;49.490;10.972;2023-08-06T06:02:08;14.80;99.90
44747;DHT22;30472;49.490;10.972;2023-08-06T06:04:34;15.00;99.90
44747;DHT22;30472;49.490;10.972;2023-08-06T06:06:59;15.20;99.90
44747;DHT22;30472;49.490;10.972;2023-08-06T06:09:25;15.50;99.90
44747;DHT22;30472;49.490;10.972;2023-08-06T06:11:51;15.50;99.90
44747;DHT22;30472;49.490;10.972;2023-08-06T06:14:17;15.50;99.90
44747;DHT22;30472;49.490;10.972;2023-08-06T06:16:43;15.40;99.90
44747;DHT22;30472;49.490;10.972;2023-08-06T06:19:09;15.20;99.90
44747;DHT22;30472;49.490;10.972;2023-08-06T06:21:34;15.20;99.90
44747;DHT22;30472;49.490;10.972;2023-08-06T06:24:00;15.20;99.90
44747;DHT22;30472;49.490;10.972;2023-08-06T06:26:25;15.20;99.90
44747;DHT22;30472;49.490;10.972;2023-08-06T06:28:51;15.10;99.90
44747;DHT22;30472;49.490;10.972;2023-08-06T06:31:17;15.20;99.90
44747;DHT22;30472;49.490;10.972;2023-08-06T06:33:42;15.20;99.90
44747;DHT22;30472;49.490;10.972;2023-08-06T06:36:08;15.30;99.90
44747;DHT22;30472;49.490;10.972;2023-08-06T06:38:34;15.00;99.90
44747;DHT22;30472;49.490;10.972;2023-08-06T06:41:00;15.00;99.90
44747;DHT22;30472;49.490;10.972;2023-08-06T06:43:26;15.00;99.90
44747;DHT22;30472;49.490;10.972;2023-08-06T06:46:00;15.00;99.90
44747;DHT22;30472;49.490;10.972;2023-08-06T06:48:32;14.90;99.90
44747;DHT22;30472;49.490;10.972;2023-08-06T06:50:57;14.90;99.90
44747;DHT22;30472;49.490;10.972;2023-08-06T06:53:24;15.00;99.90
44747;DHT22;30472;49.490;10.972;2023-08-06T06:56:00;15.10;99.90
44747;DHT22;30472;49.490;10.972;2023-08-06T06:58:26;15.10;99.90
44747;DHT22;30472;49.490;10.972;2023-08-06T07:00:51;15.00;99.90
44747;DHT22;30472;49.490;10.972;2023-08-06T07:03:17;15.10;99.90
44747;DHT22;30472;49.490;10.972;2023-08-06T07:05:44;15.10;99.90
44747;DHT22;30472;49.490;10.972;2023-08-06T07:08:09;15.20;99.90
44747;DHT22;30472;49.490;10.972;2023-08-06T07:10:35;15.20;99.90
44747;DHT22;30472;49.490;10.972;2023-08-06T07:13:01;15.20;99.90
44747;DHT22;30472;49.490;10.972;2023-08-06T07:15:26;15.40;99.90
44747;DHT22;30472;49.490;10.972;2023-08-06T07:17:52;15.50;99.90
44747;DHT22;30472;49.490;10.972;2023-08-06T07:20:17;15.60;99.90
44747;DHT22;30472;49.490;10.972;2023-08-06T07:22:44;15.70;99.90
44747;DHT22;30472;49.490;10.972;2023-08-06T07:25:10;15.70;99.90
44747;DHT22;30472;49.490;10.972;2023-08-06T07:27:36;15.60;99.90
44747;DHT22;30472;49.490;10.972;2023-08-06T07:30:02;15.80;99.90
44747;DHT22;30472;49.490;10.972;2023-08-06T07:32:28;15.80;99.90
44747;DHT22;30472;49.490;10.972;2023-08-06T07:34:53;15.90;99.90
44747;DHT22;30472;49.490;10.972;2023-08-06T07:37:25;16.20;99.90
44747;DHT22;30472;49.490;10.972;2023-08-06T07:39:53;16.50;99.90
44747;DHT22;30472;49.490;10.972;2023-08-06T07:42:19;17.00;99.90
44747;DHT22;30472;49.490;10.972;2023-08-06T07:44:51;17.10;99.90
44747;DHT22;30472;49.490;10.972;2023-08-06T07:47:18;17.20;99.90
44747;DHT22;30472;49.490;10.972;2023-08-06T07:49:43;17.00;99.90
44747;DHT22;30472;49.490;10.972;2023-08-06T07:52:09;17.00;99.90
44747;DHT22;30472;49.490;10.972;2023-08-06T07:54:34;16.80;99.90
44747;DHT22;30472;49.490;10.972;2023-08-06T07:57:00;16.80;99.90
44747;DHT22;30472;49.490;10.972;2023-08-06T07:59:25;17.10;99.90
44747;DHT22;30472;49.490;10.972;2023-08-06T08:01:51;17.20;99.90
44747;DHT22;30472;49.490;10.972;2023-08-06T08:04:16;17.90;99.90
44747;DHT22;30472;49.490;10.972;2023-08-06T08:06:42;17.80;99.90
44747;DHT22;30472;49.490;10.972;2023-08-06T08:09:08;17.30;99.90
44747;DHT22;30472;49.490;10.972;2023-08-06T08:11:33;16.70;99.90
44747;DHT22;30472;49.490;10.972;2023-08-06T08:13:59;16.80;99.90
44747;DHT22;30472;49.490;10.972;2023-08-06T08:16:24;16.40;99.90
44747;DHT22;30472;49.490;10.972;2023-08-06T08:18:50;16.70;99.90
44747;DHT22;30472;49.490;10.972;2023-08-06T08:21:15;16.70;99.90
44747;DHT22;30472;49.490;10.972;2023-08-06T08:23:41;16.50;99.90
44747;DHT22;30472;49.490;10.972;2023-08-06T08:26:07;16.50;99.90
44747;DHT22;30472;49.490;10.972;2023-08-06T08:28:33;16.50;99.90
44747;DHT22;30472;49.490;10.972;2023-08-06T08:30:58;16.50;99.90
44747;DHT22;30472;49.490;10.972;2023-08-06T08:33:24;16.50;99.90
44747;DHT22;30472;49.490;10.972;2023-08-06T08:35:49;16.70;99.90
44747;DHT22;30472;49.490;10.972;2023-08-06T08:38:15;17.00;99.90
44747;DHT22;30472;49.490;10.972;2023-08-06T08:40:46;18.00;99.90
44747;DHT22;30472;49.490;10.972;2023-08-06T08:43:15;18.00;99.90
44747;DHT22;30472;49.490;10.972;2023-08-06T08:45:42;17.00;99.90
44747;DHT22;30472;49.490;10.972;2023-08-06T08:48:11;16.60;99.90
44747;DHT22;30472;49.490;10.972;2023-08-06T08:50:39;16.10;99.90
44747;DHT22;30472;49.490;10.972;2023-08-06T08:53:05;16.10;99.90
44747;DHT22;30472;49.490;10.972;2023-08-06T08:55:31;16.20;99.90
44747;DHT22;30472;49.490;10.972;2023-08-06T08:57:57;16.40;99.90
44747;DHT22;30472;49.490;10.972;2023-08-06T09:00:23;16.50;99.90
44747;DHT22;30472;49.490;10.972;2023-08-06T09:02:49;16.40;99.90
44747;DHT22;30472;49.490;10.972;2023-08-06T09:05:16;16.70;99.90
44747;DHT22;30472;49.490;10.972;2023-08-06T09:07:47;16.80;99.90
44747;DHT22;30472;49.490;10.972;2023-08-06T09:10:14;17.30;99.90
44747;DHT22;30472;49.490;10.972;2023-08-06T09:12:43;17.10;99.90
44747;DHT22;30472;49.490;10.972;2023-08-06T09:15:10;16.80;99.90
44747;DHT22;30472;49.490;10.972;2023-08-06T09:17:36;17.40;99.90
44747;DHT22;30472;49.490;10.972;2023-08-06T09:20:15;17.40;99.90
44747;DHT22;30472;49.490;10.972;2023-08-06T09:22:41;18.20;99.90
44747;DHT22;30472;49.490;10.972;2023-08-06T09:25:07;18.20;99.90
44747;DHT22;30472;49.490;10.972;2023-08-06T09:27:37;17.40;99.90
44747;DHT22;30472;49.490;10.972;2023-08-06T09:30:04;17.40;99.90
44747;DHT22;30472;49.490;10.972;2023-08-06T09:32:45;17.40;99.90
44747;DHT22;30472;49.490;10.972;2023-08-06T09:35:15;17.90;99.90
44747;DHT22;30472;49.490;10.972;2023-08-06T09:37:41;17.60;99.90
44747;DHT22;30472;49.490;10.972;2023-08-06T09:40:30;17.40;99.90
44747;DHT22;30472;49.490;10.972;2023-08-06T09:42:57;17.50;99.90
44747;DHT22;30472;49.490;10.972;2023-08-06T09:45:24;17.50;99.90
44747;DHT22;30472;49.490;10.972;2023-08-06T09:47:56;17.50;99.90
44747;DHT22;30472;49.490;10.972;2023-08-06T09:50:23;17.50;99.90
44747;DHT22;30472;49.490;10.972;2023-08-06T09:52:50;17.90;99.90
44747;DHT22;30472;49.490;10.972;2023-08-06T09:55:18;17.30;99.90
44747;DHT22;30472;49.490;10.972;2023-08-06T09:57:44;17.70;99.90
44747;DHT22;30472;49.490;10.972;2023-08-06T10:00:11;18.20;99.90
44747;DHT22;30472;49.490;10.972;2023-08-06T10:02:40;18.00;99.90
44747;DHT22;30472;49.490;10.972;2023-08-06T10:05:09;18.40;99.90
44747;DHT22;30472;49.490;10.972;2023-08-06T10:07:35;18.90;99.90
44747;DHT22;30472;49.490;10.972;2023-08-06T10:10:02;19.10;99.90
44747;DHT22;30472;49.490;10.972;2023-08-06T10:12:35;18.80;99.90
44747;DHT22;30472;49.490;10.972;2023-08-06T10:15:06;17.90;99.90
44747;DHT22;30472;49.490;10.972;2023-08-06T10:17:34;17.60;99.90
44747;DHT22;30472;49.490;10.972;2023-08-06T10:20:00;18.50;99.90
44747;DHT22;30472;49.490;10.972;2023-08-06T10:22:26;19.30;99.90
44747;DHT22;30472;49.490;10.972;2023-08-06T10:25:00;19.30;99.90
44747;DHT22;30472;49.490;10.972;2023-08-06T10:27:34;18.90;99.90
44747;DHT22;30472;49.490;10.972;2023-08-06T10:32:50;18.60;99.90
44747;DHT22;30472;49.490;10.972;2023-08-06T10:37:54;19.00;99.90
44747;DHT22;30472;49.490;10.972;2023-08-06T10:40:22;18.60;99.90
44747;DHT22;30472;49.490;10.972;2023-08-06T10:42:49;18.50;99.90
44747;DHT22;30472;49.490;10.972;2023-08-06T10:45:16;18.70;99.90
44747;DHT22;30472;49.490;10.972;2023-08-06T10:47:43;19.00;99.90
44747;DHT22;30472;49.490;10.972;2023-08-06T10:50:12;18.90;99.90
44747;DHT22;30472;49.490;10.972;2023-08-06T10:52:39;18.80;99.90
44747;DHT22;30472;49.490;10.972;2023-08-06T10:55:05;18.60;99.90
44747;DHT22;30472;49.490;10.972;2023-08-06T10:57:31;19.00;99.90
44747;DHT22;30472;49.490;10.972;2023-08-06T10:59:57;19.40;99.90
44747;DHT22;30472;49.490;10.972;2023-08-06T11:02:22;19.20;99.90
44747;DHT22;30472;49.490;10.972;2023-08-06T11:04:48;18.60;99.90
44747;DHT22;30472;49.490;10.972;2023-08-06T11:07:14;18.30;99.90
44747;DHT22;30472;49.490;10.972;2023-08-06T11:09:39;18.90;99.90
44747;DHT22;30472;49.490;10.972;2023-08-06T11:12:11;19.70;99.90
44747;DHT22;30472;49.490;10.972;2023-08-06T11:14:37;19.80;99.90
44747;DHT22;30472;49.490;10.972;2023-08-06T11:17:05;20.00;99.90
44747;DHT22;30472;49.490;10.972;2023-08-06T11:19:31;19.90;99.90
44747;DHT22;30472;49.490;10.972;2023-08-06T11:21:56;19.40;99.90
44747;DHT22;30472;49.490;10.972;2023-08-06T11:24:24;19.90;99.90
44747;DHT22;30472;49.490;10.972;2023-08-06T11:26:49;19.90;99.90
44747;DHT22;30472;49.490;10.972;2023-08-06T11:29:15;20.00;99.90
44747;DHT22;30472;49.490;10.972;2023-08-06T11:31:42;19.20;99.90
44747;DHT22;30472;49.490;10.972;2023-08-06T11:34:08;19.00;99.90
44747;DHT22;30472;49.490;10.972;2023-08-06T11:36:39;18.40;99.90
44747;DHT22;30472;49.490;10.972;2023-08-06T11:39:05;18.00;99.90
44747;DHT22;30472;49.490;10.972;2023-08-06T11:41:31;18.50;99.90
44747;DHT22;30472;49.490;10.972;2023-08-06T11:43:58;19.20;99.90
44747;DHT22;30472;49.490;10.972;2023-08-06T11:46:24;19.70;99.90
44747;DHT22;30472;49.490;10.972;2023-08-06T11:48:51;20.20;99.90
44747;DHT22;30472;49.490;10.972;2023-08-06T11:51:17;20.20;99.90
44747;DHT22;30472;49.490;10.972;2023-08-06T11:53:48;20.20;99.90
44747;DHT22;30472;49.490;10.972;2023-08-06T11:56:14;19.90;99.90
44747;DHT22;30472;49.490;10.972;2023-08-06T11:58:43;19.80;99.90
44747;DHT22;30472;49.490;10.972;2023-08-06T12:01:09;19.70;99.90
44747;DHT22;30472;49.490;10.972;2023-08-06T12:03:41;19.00;99.90
44747;DHT22;30472;49.490;10.972;2023-08-06T12:06:06;18.40;99.90
44747;DHT22;30472;49.490;10.972;2023-08-06T12:08:35;17.70;99.90
44747;DHT22;30472;49.490;10.972;2023-08-06T12:11:00;17.80;99.90
44747;DHT22;30472;49.490;10.972;2023-08-06T12:13:26;17.80;99.90
44747;DHT22;30472;49.490;10.972;2023-08-06T12:15:54;18.00;99.90
44747;DHT22;30472;49.490;10.972;2023-08-06T12:18:19;18.80;99.90
44747;DHT22;30472;49.490;10.972;2023-08-06T12:20:45;18.80;99.90
44747;DHT22;30472;49.490;10.972;2023-08-06T12:23:11;19.30;99.90
44747;DHT22;30472;49.490;10.972;2023-08-06T12:25:40;19.50;99.90
44747;DHT22;30472;49.490;10.972;2023-08-06T12:28:06;19.60;99.90
44747;DHT22;30472;49.490;10.972;2023-08-06T12:30:33;19.60;99.90
44747;DHT22;30472;49.490;10.972;2023-08-06T12:32:58;19.90;99.90
44747;DHT22;30472;49.490;10.972;2023-08-06T12:35:24;20.10;99.90
44747;DHT22;30472;49.490;10.972;2023-08-06T12:37:51;20.20;99.90
44747;DHT22;30472;49.490;10.972;2023-08-06T12:40:20;20.60;99.90
44747;DHT22;30472;49.490;10.972;2023-08-06T12:42:45;20.60;99.90
44747;DHT22;30472;49.490;10.972;2023-08-06T12:45:11;20.20;99.90
44747;DHT22;30472;49.490;10.972;2023-08-06T12:47:37;20.00;99.90
44747;DHT22;30472;49.490;10.972;2023-08-06T12:50:03;19.90;99.90
44747;DHT22;30472;49.490;10.972;2023-08-06T12:52:29;19.90;99.90
44747;DHT22;30472;49.490;10.972;2023-08-06T12:54:54;19.90;99.90
44747;DHT22;30472;49.490;10.972;2023-08-06T12:57:20;19.80;99.90
44747;DHT22;30472;49.490;10.972;2023-08-06T12:59:45;19.20;99.90
44747;DHT22;30472;49.490;10.972;2023-08-06T13:02:11;19.00;99.90
44747;DHT22;30472;49.490;10.972;2023-08-06T13:04:37;18.80;99.90
44747;DHT22;30472;49.490;10.972;2023-08-06T13:07:02;18.50;99.90
44747;DHT22;30472;49.490;10.972;2023-08-06T13:09:28;18.20;99.90
44747;DHT22;30472;49.490;10.972;2023-08-06T13:11:54;17.50;99.90
44747;DHT22;30472;49.490;10.972;2023-08-06T13:14:20;18.20;99.90
44747;DHT22;30472;49.490;10.972;2023-08-06T13:16:46;18.90;99.90
44747;DHT22;30472;49.490;10.972;2023-08-06T13:19:12;19.00;99.90
44747;DHT22;30472;49.490;10.972;2023-08-06T13:24:06;19.20;99.90
44747;DHT22;30472;49.490;10.972;2023-08-06T13:26:32;19.00;99.90
44747;DHT22;30472;49.490;10.972;2023-08-06T13:28:58;19.00;99.90
44747;DHT22;30472;49.490;10.972;2023-08-06T13:31:25;18.80;99.90
44747;DHT22;30472;49.490;10.972;2023-08-06T13:33:56;18.40;99.90
44747;DHT22;30472;49.490;10.972;2023-08-06T13:36:23;18.10;99.90
44747;DHT22;30472;49.490;10.972;2023-08-06T13:38:49;17.50;99.90
44747;DHT22;30472;49.490;10.972;2023-08-06T13:41:15;17.20;99.90
44747;DHT22;30472;49.490;10.972;2023-08-06T13:43:40;17.10;99.90
44747;DHT22;30472;49.490;10.972;2023-08-06T13:46:06;17.50;99.90
44747;DHT22;30472;49.490;10.972;2023-08-06T13:48:31;17.30;99.90
44747;DHT22;30472;49.490;10.972;2023-08-06T13:50:57;17.20;99.90
44747;DHT22;30472;49.490;10.972;2023-08-06T13:53:23;17.20;99.90
44747;DHT22;30472;49.490;10.972;2023-08-06T13:55:50;17.10;99.90
44747;DHT22;30472;49.490;10.972;2023-08-06T13:58:16;16.80;99.90
44747;DHT22;30472;49.490;10.972;2023-08-06T14:00:41;16.60;99.90
44747;DHT22;30472;49.490;10.972;2023-08-06T14:03:07;16.60;99.90
44747;DHT22;30472;49.490;10.972;2023-08-06T14:05:33;16.00;99.90
44747;DHT22;30472;49.490;10.972;2023-08-06T14:07:59;15.70;99.90
44747;DHT22;30472;49.490;10.972;2023-08-06T14:10:25;15.50;99.90
44747;DHT22;30472;49.490;10.972;2023-08-06T14:12:51;15.50;99.90
44747;DHT22;30472;49.490;10.972;2023-08-06T14:15:16;15.50;99.90
44747;DHT22;30472;49.490;10.972;2023-08-06T14:17:42;15.50;99.90
44747;DHT22;30472;49.490;10.972;2023-08-06T14:20:08;15.40;99.90
44747;DHT22;30472;49.490;10.972;2023-08-06T14:22:37;15.30;99.90
44747;DHT22;30472;49.490;10.972;2023-08-06T14:25:03;15.20;99.90
44747;DHT22;30472;49.490;10.972;2023-08-06T14:27:28;15.20;99.90
44747;DHT22;30472;49.490;10.972;2023-08-06T14:29:54;15.20;99.90
44747;DHT22;30472;49.490;10.972;2023-08-06T14:32:20;15.30;99.90
44747;DHT22;30472;49.490;10.972;2023-08-06T14:34:46;15.30;99.90
44747;DHT22;30472;49.490;10.972;2023-08-06T14:37:12;15.30;99.90
44747;DHT22;30472;49.490;10.972;2023-08-06T14:39:37;15.40;99.90
44747;DHT22;30472;49.490;10.972;2023-08-06T14:42:04;15.40;99.90
44747;DHT22;30472;49.490;10.972;2023-08-06T14:44:30;15.50;99.90
44747;DHT22;30472;49.490;10.972;2023-08-06T14:46:56;15.60;99.90
44747;DHT22;30472;49.490;10.972;2023-08-06T14:49:21;15.30;99.90
44747;DHT22;30472;49.490;10.972;2023-08-06T14:51:47;15.10;99.90
44747;DHT22;30472;49.490;10.972;2023-08-06T14:54:12;14.90;99.90
44747;DHT22;30472;49.490;10.972;2023-08-06T14:56:38;15.00;99.90
44747;DHT22;30472;49.490;10.972;2023-08-06T14:59:03;14.80;99.90
44747;DHT22;30472;49.490;10.972;2023-08-06T15:01:29;14.80;99.90
44747;DHT22;30472;49.490;10.972;2023-08-06T15:03:55;15.10;99.90
44747;DHT22;30472;49.490;10.972;2023-08-06T15:06:20;15.20;99.90
44747;DHT22;30472;49.490;10.972;2023-08-06T15:08:46;15.40;99.90
44747;DHT22;30472;49.490;10.972;2023-08-06T15:11:13;15.40;99.90
44747;DHT22;30472;49.490;10.972;2023-08-06T15:13:39;15.50;99.90
44747;DHT22;30472;49.490;10.972;2023-08-06T15:16:04;15.40;99.90
44747;DHT22;30472;49.490;10.972;2023-08-06T15:18:30;15.30;99.90
44747;DHT22;30472;49.490;10.972;2023-08-06T15:20:55;15.40;99.90